sensor_id;sensor_type;location;lat;lon;timestamp;pressure;altitude;pressure_sealevel;temperature;humidity
6853;BME280;3465;42.144;24.722;2023-02-13T00:00:33;144234.41;;;5.25;72.93
6853;BME280;3465;42.144;24.722;2023-02-13T00:02:58;144228.16;;;5.22;73.02
6853;BME280;3465;42.144;24.722;2023-02-13T00:05:24;144179.56;;;5.03;73.24
6853;BME280;3465;42.144;24.722;2023-02-13T00:07:49;144221.97;;;5.20;73.36
6853;BME280;3465;42.144;24.722;2023-02-13T00:10:15;144203.22;;;5.12;73.52
6853;BME280;3465;42.144;24.722;2023-02-13T00:12:40;144202.03;;;5.12;73.72
6853;BME280;3465;42.144;24.722;2023-02-13T00:15:06;144192.03;;;5.08;73.85
6853;BME280;3465;42.144;24.722;2023-02-13T00:17:33;144193.28;;;5.08;74.19
6853;BME280;3465;42.144;24.722;2023-02-13T00:19:59;144187.06;;;5.06;74.36
6853;BME280;3465;42.144;24.722;2023-02-13T00:22:24;144123.50;;;4.80;74.80
6853;BME280;3465;42.144;24.722;2023-02-13T00:24:50;144172.09;;;5.00;74.77
6853;BME280;3465;42.144;24.722;2023-02-13T00:27:16;144169.63;;;4.99;74.63
6853;BME280;3465;42.144;24.722;2023-02-13T00:29:41;144139.69;;;4.87;75.19
6853;BME280;3465;42.144;24.722;2023-02-13T00:32:07;144155.88;;;4.93;75.32
6853;BME280;3465;42.144;24.722;2023-02-13T00:34:32;144159.63;;;4.95;75.02
6853;BME280;3465;42.144;24.722;2023-02-13T00:36:58;144157.16;;;4.94;75.26
6853;BME280;3465;42.144;24.722;2023-02-13T00:39:23;144147.22;;;4.90;75.58
6853;BME280;3465;42.144;24.722;2023-02-13T00:41:48;144129.75;;;4.83;75.64
6853;BME280;3465;42.144;24.722;2023-02-13T00:44:14;144145.94;;;4.89;75.75
6853;BME280;3465;42.144;24.722;2023-02-13T00:46:39;144128.50;;;4.82;75.56
6853;BME280;3465;42.144;24.722;2023-02-13T00:49:05;144152.16;;;4.92;75.53
6853;BME280;3465;42.144;24.722;2023-02-13T00:51:31;144157.16;;;4.94;75.54
6853;BME280;3465;42.144;24.722;2023-02-13T00:53:56;144159.63;;;4.95;74.64
6853;BME280;3465;42.144;24.722;2023-02-13T00:56:22;144145.94;;;4.89;73.75
6853;BME280;3465;42.144;24.722;2023-02-13T00:58:47;144165.88;;;4.97;73.37
6853;BME280;3465;42.144;24.722;2023-02-13T01:01:13;144177.09;;;5.02;72.98
6853;BME280;3465;42.144;24.722;2023-02-13T01:03:39;144195.75;;;5.09;72.85
6853;BME280;3465;42.144;24.722;2023-02-13T01:06:05;144185.81;;;5.05;73.25
6853;BME280;3465;42.144;24.722;2023-02-13T01:08:31;144159.63;;;4.95;72.21
6853;BME280;3465;42.144;24.722;2023-02-13T01:10:57;144174.63;;;5.01;73.48
6853;BME280;3465;42.144;24.722;2023-02-13T01:13:22;144169.63;;;4.99;73.97
6853;BME280;3465;42.144;24.722;2023-02-13T01:15:48;144152.16;;;4.92;74.36
6853;BME280;3465;42.144;24.722;2023-02-13T01:18:16;144154.69;;;4.93;74.56
6853;BME280;3465;42.144;24.722;2023-02-13T01:20:43;144148.41;;;4.90;75.19
6853;BME280;3465;42.144;24.722;2023-02-13T01:23:10;144137.22;;;4.86;75.65
6853;BME280;3465;42.144;24.722;2023-02-13T01:25:42;144128.50;;;4.82;76.40
6853;BME280;3465;42.144;24.722;2023-02-13T01:28:07;144114.81;;;4.77;76.74
6853;BME280;3465;42.144;24.722;2023-02-13T01:30:33;144098.63;;;4.70;76.93
6853;BME280;3465;42.144;24.722;2023-02-13T01:32:58;144111.06;;;4.75;77.59
6853;BME280;3465;42.144;24.722;2023-02-13T01:35:24;144097.34;;;4.70;77.85
6853;BME280;3465;42.144;24.722;2023-02-13T01:37:49;144081.16;;;4.63;78.09
6853;BME280;3465;42.144;24.722;2023-02-13T01:40:15;144083.63;;;4.64;78.75
6853;BME280;3465;42.144;24.722;2023-02-13T01:42:41;144047.56;;;4.50;79.71
6853;BME280;3465;42.144;24.722;2023-02-13T01:47:51;144047.56;;;4.50;80.42
6853;BME280;3465;42.144;24.722;2023-02-13T01:50:25;144037.56;;;4.46;81.17
6853;BME280;3465;42.144;24.722;2023-02-13T01:53:09;144007.72;;;4.33;81.79
6853;BME280;3465;42.144;24.722;2023-02-13T01:55:42;144003.94;;;4.32;82.51
6853;BME280;3465;42.144;24.722;2023-02-13T01:58:14;143962.88;;;4.15;83.36
6853;BME280;3465;42.144;24.722;2023-02-13T02:00:43;143926.78;;;4.01;83.94
6853;BME280;3465;42.144;24.722;2023-02-13T02:03:18;143939.22;;;4.06;84.58
6853;BME280;3465;42.144;24.722;2023-02-13T02:05:46;143900.59;;;3.90;85.90
6853;BME280;3465;42.144;24.722;2023-02-13T02:08:14;143869.50;;;3.78;86.40
6853;BME280;3465;42.144;24.722;2023-02-13T02:10:39;143864.50;;;3.76;87.21
6853;BME280;3465;42.144;24.722;2023-02-13T02:13:18;143848.38;;;3.69;87.42
6853;BME280;3465;42.144;24.722;2023-02-13T02:15:44;143820.94;;;3.58;88.53
6853;BME280;3465;42.144;24.722;2023-02-13T02:18:15;143799.84;;;3.50;89.20
6853;BME280;3465;42.144;24.722;2023-02-13T02:23:57;143757.50;;;3.33;90.93
6853;BME280;3465;42.144;24.722;2023-02-13T02:38:12;143653.06;;;2.90;95.30
6853;BME280;3465;42.144;24.722;2023-02-13T02:46:07;143610.75;;;2.73;96.40
6853;BME280;3465;42.144;24.722;2023-02-13T02:48:55;143603.31;;;2.70;97.21
6853;BME280;3465;42.144;24.722;2023-02-13T02:52:02;143585.88;;;2.63;97.53
6853;BME280;3465;42.144;24.722;2023-02-13T02:54:50;143592.13;;;2.66;97.46
6853;BME280;3465;42.144;24.722;2023-02-13T02:57:40;143559.78;;;2.53;98.55
6853;BME280;3465;42.144;24.722;2023-02-13T03:00:28;143542.38;;;2.46;98.66
6853;BME280;3465;42.144;24.722;2023-02-13T03:03:18;143556.06;;;2.51;98.00
6853;BME280;3465;42.144;24.722;2023-02-13T03:06:17;143515.03;;;2.35;97.58
6853;BME280;3465;42.144;24.722;2023-02-13T03:08:57;143512.56;;;2.34;98.40
6853;BME280;3465;42.144;24.722;2023-02-13T03:11:45;143475.28;;;2.19;99.07
6853;BME280;3465;42.144;24.722;2023-02-13T03:14:31;143449.19;;;2.08;100.00
6853;BME280;3465;42.144;24.722;2023-02-13T03:16:57;143445.47;;;2.07;100.00
6853;BME280;3465;42.144;24.722;2023-02-13T03:29:13;143300.13;;;1.48;100.00
6853;BME280;3465;42.144;24.722;2023-02-13T03:34:40;143302.63;;;1.49;100.00
6853;BME280;3465;42.144;24.722;2023-02-13T03:37:28;143296.41;;;1.46;100.00
6853;BME280;3465;42.144;24.722;2023-02-13T03:40:27;143286.47;;;1.42;100.00
6853;BME280;3465;42.144;24.722;2023-02-13T03:43:03;143306.34;;;1.51;100.00
6853;BME280;3465;42.144;24.722;2023-02-13T03:45:36;143352.28;;;1.69;100.00
6853;BME280;3465;42.144;24.722;2023-02-13T03:48:25;143303.84;;;1.49;100.00
6853;BME280;3465;42.144;24.722;2023-02-13T03:51:15;143318.78;;;1.56;100.00
6853;BME280;3465;42.144;24.722;2023-02-13T03:53:44;143311.34;;;1.53;100.00
6853;BME280;3465;42.144;24.722;2023-02-13T03:56:12;143298.91;;;1.48;100.00
6853;BME280;3465;42.144;24.722;2023-02-13T03:58:59;143281.50;;;1.40;100.00
6853;BME280;3465;42.144;24.722;2023-02-13T04:01:44;143276.53;;;1.38;100.00
6853;BME280;3465;42.144;24.722;2023-02-13T04:04:50;143274.06;;;1.37;100.00
6853;BME280;3465;42.144;24.722;2023-02-13T04:07:20;143259.19;;;1.31;100.00
6853;BME280;3465;42.144;24.722;2023-02-13T04:09:59;143280.25;;;1.40;100.00
6853;BME280;3465;42.144;24.722;2023-02-13T04:12:49;143264.09;;;1.33;100.00
6853;BME280;3465;42.144;24.722;2023-02-13T04:18:07;143231.88;;;1.20;100.00
6853;BME280;3465;42.144;24.722;2023-02-13T04:20:34;143230.59;;;1.20;100.00
6853;BME280;3465;42.144;24.722;2023-02-13T04:23:05;143214.47;;;1.13;100.00
6853;BME280;3465;42.144;24.722;2023-02-13T04:25:32;143197.06;;;1.06;100.00
6853;BME280;3465;42.144;24.722;2023-02-13T04:27:57;143197.06;;;1.06;100.00
6853;BME280;3465;42.144;24.722;2023-02-13T04:30:23;143151.16;;;0.88;100.00
6853;BME280;3465;42.144;24.722;2023-02-13T04:32:48;143123.88;;;0.77;100.00
6853;BME280;3465;42.144;24.722;2023-02-13T04:35:13;143070.50;;;0.55;100.00
6853;BME280;3465;42.144;24.722;2023-02-13T04:37:39;143077.94;;;0.58;100.00
6853;BME280;3465;42.144;24.722;2023-02-13T04:40:05;143092.84;;;0.64;100.00
6853;BME280;3465;42.144;24.722;2023-02-13T04:42:31;143127.59;;;0.78;100.00
6853;BME280;3465;42.144;24.722;2023-02-13T04:44:56;143149.91;;;0.87;100.00
6853;BME280;3465;42.144;24.722;2023-02-13T04:47:21;143125.06;;;0.77;100.00
6853;BME280;3465;42.144;24.722;2023-02-13T04:49:47;143152.41;;;0.88;100.00
6853;BME280;3465;42.144;24.722;2023-02-13T04:52:12;143138.75;;;0.83;100.00
6853;BME280;3465;42.144;24.722;2023-02-13T04:54:39;143122.63;;;0.76;100.00
6853;BME280;3465;42.144;24.722;2023-02-13T04:57:05;143121.34;;;0.76;100.00
6853;BME280;3465;42.144;24.722;2023-02-13T04:59:30;143071.75;;;0.56;100.00
6853;BME280;3465;42.144;24.722;2023-02-13T05:01:55;143122.63;;;0.76;100.00
6853;BME280;3465;42.144;24.722;2023-02-13T05:04:23;143102.75;;;0.68;100.00
6853;BME280;3465;42.144;24.722;2023-02-13T05:06:49;143090.34;;;0.63;100.00
6853;BME280;3465;42.144;24.722;2023-02-13T05:09:15;143081.66;;;0.60;100.00
6853;BME280;3465;42.144;24.722;2023-02-13T05:11:40;143086.63;;;0.62;100.00
6853;BME280;3465;42.144;24.722;2023-02-13T05:14:06;143097.78;;;0.66;100.00
6853;BME280;3465;42.144;24.722;2023-02-13T05:16:31;143110.19;;;0.71;100.00
6853;BME280;3465;42.144;24.722;2023-02-13T05:18:57;143096.59;;;0.66;100.00
6853;BME280;3465;42.144;24.722;2023-02-13T05:21:22;143082.91;;;0.60;100.00
6853;BME280;3465;42.144;24.722;2023-02-13T05:24:06;143053.16;;;0.48;100.00
6853;BME280;3465;42.144;24.722;2023-02-13T05:26:31;143025.81;;;0.37;100.00
6853;BME280;3465;42.144;24.722;2023-02-13T05:28:57;143029.53;;;0.39;100.00
6853;BME280;3465;42.144;24.722;2023-02-13T05:31:41;143030.78;;;0.39;100.00
6853;BME280;3465;42.144;24.722;2023-02-13T05:34:06;143032.06;;;0.40;100.00
6853;BME280;3465;42.144;24.722;2023-02-13T05:36:31;143030.78;;;0.39;100.00
6853;BME280;3465;42.144;24.722;2023-02-13T05:38:57;143028.34;;;0.38;100.00
6853;BME280;3465;42.144;24.722;2023-02-13T05:41:22;143048.19;;;0.46;100.00
6853;BME280;3465;42.144;24.722;2023-02-13T05:43:48;143041.94;;;0.44;100.00
6853;BME280;3465;42.144;24.722;2023-02-13T05:46:14;143051.91;;;0.48;100.00
6853;BME280;3465;42.144;24.722;2023-02-13T05:48:39;143085.38;;;0.61;100.00
6853;BME280;3465;42.144;24.722;2023-02-13T05:51:05;143018.38;;;0.34;100.00
6853;BME280;3465;42.144;24.722;2023-02-13T05:53:30;142996.06;;;0.25;100.00
6853;BME280;3465;42.144;24.722;2023-02-13T05:55:59;143045.66;;;0.45;100.00
6853;BME280;3465;42.144;24.722;2023-02-13T05:58:24;143048.19;;;0.46;100.00
6853;BME280;3465;42.144;24.722;2023-02-13T06:00:50;143048.19;;;0.46;100.00
6853;BME280;3465;42.144;24.722;2023-02-13T06:03:15;142970.00;;;0.15;100.00
6853;BME280;3465;42.144;24.722;2023-02-13T06:05:41;143073.00;;;0.56;100.00
6853;BME280;3465;42.144;24.722;2023-02-13T06:08:06;143094.06;;;0.65;100.00
6853;BME280;3465;42.144;24.722;2023-02-13T06:10:31;143082.91;;;0.60;100.00
6853;BME280;3465;42.144;24.722;2023-02-13T06:12:57;143203.31;;;1.09;100.00
6853;BME280;3465;42.144;24.722;2023-02-13T06:15:22;143365.97;;;1.75;100.00
6853;BME280;3465;42.144;24.722;2023-02-13T06:17:48;143533.72;;;2.42;100.00
6853;BME280;3465;42.144;24.722;2023-02-13T06:20:13;143659.25;;;2.93;99.15
6853;BME280;3465;42.144;24.722;2023-02-13T06:22:38;143834.66;;;3.64;94.97
6853;BME280;3465;42.144;24.722;2023-02-13T06:25:04;143994.00;;;4.28;89.54
6853;BME280;3465;42.144;24.722;2023-02-13T06:27:30;144223.16;;;5.20;85.11
6853;BME280;3465;42.144;24.722;2023-02-13T06:29:55;144279.25;;;5.43;79.14
6853;BME280;3465;42.144;24.722;2023-02-13T06:32:20;144246.88;;;5.30;77.17
6853;BME280;3465;42.144;24.722;2023-02-13T06:34:46;144187.06;;;5.06;78.78
6853;BME280;3465;42.144;24.722;2023-02-13T06:37:11;144250.63;;;5.31;78.85
6853;BME280;3465;42.144;24.722;2023-02-13T06:39:37;144465.13;;;6.18;75.30
6853;BME280;3465;42.144;24.722;2023-02-13T06:42:02;144648.53;;;6.91;70.08
6853;BME280;3465;42.144;24.722;2023-02-13T06:44:27;144844.56;;;7.70;66.67
6853;BME280;3465;42.144;24.722;2023-02-13T06:46:53;145010.78;;;8.37;63.25
6853;BME280;3465;42.144;24.722;2023-02-13T06:49:18;145138.28;;;8.88;59.03
6853;BME280;3465;42.144;24.722;2023-02-13T06:51:43;145340.97;;;9.69;56.94
6853;BME280;3465;42.144;24.722;2023-02-13T06:54:09;145448.63;;;10.13;55.23
6853;BME280;3465;42.144;24.722;2023-02-13T06:56:34;145657.78;;;10.96;53.13
6853;BME280;3465;42.144;24.722;2023-02-13T06:58:59;145821.91;;;11.62;50.57
6853;BME280;3465;42.144;24.722;2023-02-13T07:01:25;145924.75;;;12.03;47.96
6853;BME280;3465;42.144;24.722;2023-02-13T07:03:50;146040.13;;;12.49;46.82
6853;BME280;3465;42.144;24.722;2023-02-13T07:06:19;146092.81;;;12.70;45.90
6853;BME280;3465;42.144;24.722;2023-02-13T07:08:46;146179.47;;;13.05;45.06
6853;BME280;3465;42.144;24.722;2023-02-13T07:11:17;146160.56;;;12.97;44.63
6853;BME280;3465;42.144;24.722;2023-02-13T07:13:43;146244.69;;;13.31;43.94
6853;BME280;3465;42.144;24.722;2023-02-13T07:16:08;146325.06;;;13.63;43.26
6853;BME280;3465;42.144;24.722;2023-02-13T07:18:33;146472.03;;;14.22;42.01
6853;BME280;3465;42.144;24.722;2023-02-13T07:20:59;146487.13;;;14.28;41.02
6853;BME280;3465;42.144;24.722;2023-02-13T07:23:24;146600.22;;;14.73;40.81
6853;BME280;3465;42.144;24.722;2023-02-13T07:25:50;146303.75;;;13.55;42.00
6853;BME280;3465;42.144;24.722;2023-02-13T07:28:15;146420.53;;;14.01;41.69
6853;BME280;3465;42.144;24.722;2023-02-13T07:30:40;146577.63;;;14.64;40.76
6853;BME280;3465;42.144;24.722;2023-02-13T07:33:06;146645.50;;;14.91;39.71
6853;BME280;3465;42.144;24.722;2023-02-13T07:35:31;146519.81;;;14.41;40.30
6853;BME280;3465;42.144;24.722;2023-02-13T07:37:57;146693.25;;;15.10;39.45
6853;BME280;3465;42.144;24.722;2023-02-13T07:40:24;146778.81;;;15.44;38.71
6853;BME280;3465;42.144;24.722;2023-02-13T07:42:50;146606.50;;;14.76;39.22
6853;BME280;3465;42.144;24.722;2023-02-13T07:45:15;146694.53;;;15.11;39.21
6853;BME280;3465;42.144;24.722;2023-02-13T07:47:41;146846.72;;;15.71;38.28
6853;BME280;3465;42.144;24.722;2023-02-13T07:50:07;146707.06;;;15.16;38.34
6853;BME280;3465;42.144;24.722;2023-02-13T07:52:33;146889.47;;;15.89;37.44
6853;BME280;3465;42.144;24.722;2023-02-13T07:55:00;146886.97;;;15.88;37.33
6853;BME280;3465;42.144;24.722;2023-02-13T07:57:25;147015.31;;;16.39;36.82
6853;BME280;3465;42.144;24.722;2023-02-13T07:59:50;147202.91;;;17.13;35.71
6853;BME280;3465;42.144;24.722;2023-02-13T08:02:16;147365.47;;;17.78;34.90
6853;BME280;3465;42.144;24.722;2023-02-13T08:04:41;147306.28;;;17.55;34.46
6853;BME280;3465;42.144;24.722;2023-02-13T08:07:10;146947.38;;;16.12;35.51
6853;BME280;3465;42.144;24.722;2023-02-13T08:09:35;146585.16;;;14.67;38.68
6853;BME280;3465;42.144;24.722;2023-02-13T08:12:19;146183.25;;;13.07;42.08
6853;BME280;3465;42.144;24.722;2023-02-13T08:14:45;145941.06;;;12.10;44.51
6853;BME280;3465;42.144;24.722;2023-02-13T08:17:10;145675.28;;;11.03;47.37
6853;BME280;3465;42.144;24.722;2023-02-13T08:19:35;145459.88;;;10.17;50.05
6853;BME280;3465;42.144;24.722;2023-02-13T08:22:01;145423.53;;;10.02;51.51
6853;BME280;3465;42.144;24.722;2023-02-13T08:24:26;145384.75;;;9.87;51.90
6853;BME280;3465;42.144;24.722;2023-02-13T08:26:52;145315.91;;;9.59;52.86
6853;BME280;3465;42.144;24.722;2023-02-13T08:29:17;145444.88;;;10.11;52.09
6853;BME280;3465;42.144;24.722;2023-02-13T08:31:42;145586.38;;;10.68;51.19
6853;BME280;3465;42.144;24.722;2023-02-13T08:34:08;145816.91;;;11.60;48.89
6853;BME280;3465;42.144;24.722;2023-02-13T08:36:33;146176.94;;;13.04;45.52
6853;BME280;3465;42.144;24.722;2023-02-13T08:38:59;146288.69;;;13.49;43.14
6853;BME280;3465;42.144;24.722;2023-02-13T08:41:24;146451.94;;;14.14;42.79
6853;BME280;3465;42.144;24.722;2023-02-13T08:43:49;146766.22;;;15.39;40.41
6853;BME280;3465;42.144;24.722;2023-02-13T08:46:16;147083.31;;;16.66;37.52
6853;BME280;3465;42.144;24.722;2023-02-13T08:48:41;147252.06;;;17.33;36.13
6853;BME280;3465;42.144;24.722;2023-02-13T08:51:08;147133.72;;;16.86;37.04
6853;BME280;3465;42.144;24.722;2023-02-13T08:53:35;147260.88;;;17.37;35.59
6853;BME280;3465;42.144;24.722;2023-02-13T08:56:01;147383.13;;;17.85;34.45
6853;BME280;3465;42.144;24.722;2023-02-13T08:58:26;147305.00;;;17.54;35.16
6853;BME280;3465;42.144;24.722;2023-02-13T09:00:52;147403.28;;;17.93;34.69
6853;BME280;3465;42.144;24.722;2023-02-13T09:03:17;147328.94;;;17.64;34.86
6853;BME280;3465;42.144;24.722;2023-02-13T09:05:43;147398.25;;;17.91;34.32
6853;BME280;3465;42.144;24.722;2023-02-13T09:08:08;147413.34;;;17.97;33.82
6853;BME280;3465;42.144;24.722;2023-02-13T09:10:36;147282.34;;;17.45;34.55
6853;BME280;3465;42.144;24.722;2023-02-13T09:13:02;147383.13;;;17.85;34.25
6853;BME280;3465;42.144;24.722;2023-02-13T09:15:27;147395.75;;;17.90;33.57
6853;BME280;3465;42.144;24.722;2023-02-13T09:17:52;147526.84;;;18.42;33.29
6853;BME280;3465;42.144;24.722;2023-02-13T09:20:18;147544.50;;;18.49;33.16
6853;BME280;3465;42.144;24.722;2023-02-13T09:22:43;147560.91;;;18.56;33.14
6853;BME280;3465;42.144;24.722;2023-02-13T09:25:09;147567.19;;;18.59;32.67
6853;BME280;3465;42.144;24.722;2023-02-13T09:27:35;147634.00;;;18.85;32.94
6853;BME280;3465;42.144;24.722;2023-02-13T09:30:01;147689.53;;;19.07;32.14
6853;BME280;3465;42.144;24.722;2023-02-13T09:32:27;147755.13;;;19.33;31.52
6853;BME280;3465;42.144;24.722;2023-02-13T09:34:52;147731.13;;;19.24;32.04
6853;BME280;3465;42.144;24.722;2023-02-13T09:37:18;147767.75;;;19.38;31.78
6853;BME280;3465;42.144;24.722;2023-02-13T09:39:44;147784.16;;;19.45;31.44
6853;BME280;3465;42.144;24.722;2023-02-13T09:42:21;147816.97;;;19.58;31.19
6853;BME280;3465;42.144;24.722;2023-02-13T09:44:50;147868.69;;;19.78;31.00
6853;BME280;3465;42.144;24.722;2023-02-13T09:49:50;147777.88;;;19.42;30.84
6853;BME280;3465;42.144;24.722;2023-02-13T09:52:17;147716.00;;;19.18;31.21
6853;BME280;3465;42.144;24.722;2023-02-13T09:54:42;147847.28;;;19.70;30.72
6853;BME280;3465;42.144;24.722;2023-02-13T09:57:16;147819.53;;;19.59;31.08
6853;BME280;3465;42.144;24.722;2023-02-13T10:04:55;147674.34;;;19.01;30.92
6853;BME280;3465;42.144;24.722;2023-02-13T10:07:47;147781.66;;;19.44;30.77
6853;BME280;3465;42.144;24.722;2023-02-13T10:10:36;147632.78;;;18.85;31.08
6853;BME280;3465;42.144;24.722;2023-02-13T10:18:59;147695.81;;;19.10;31.23
6853;BME280;3465;42.144;24.722;2023-02-13T10:21:31;147851.06;;;19.71;30.29
6853;BME280;3465;42.144;24.722;2023-02-13T10:24:32;148094.72;;;20.68;29.54
6853;BME280;3465;42.144;24.722;2023-02-13T10:26:55;148072.00;;;20.59;29.22
6853;BME280;3465;42.144;24.722;2023-02-13T10:29:37;148135.13;;;20.84;28.89
6853;BME280;3465;42.144;24.722;2023-02-13T10:32:31;148181.94;;;21.03;28.69
6853;BME280;3465;42.144;24.722;2023-02-13T10:35:02;148168.03;;;20.97;28.84
6853;BME280;3465;42.144;24.722;2023-02-13T10:37:28;148231.22;;;21.22;27.75
6853;BME280;3465;42.144;24.722;2023-02-13T10:39:54;148387.97;;;21.85;27.85
6853;BME280;3465;42.144;24.722;2023-02-13T10:42:36;148381.63;;;21.82;27.61
6853;BME280;3465;42.144;24.722;2023-02-13T10:51:23;148355.03;;;21.72;26.89
6853;BME280;3465;42.144;24.722;2023-02-13T11:02:26;148157.91;;;20.93;27.88
6853;BME280;3465;42.144;24.722;2023-02-13T11:04:57;148104.84;;;20.72;27.99
6853;BME280;3465;42.144;24.722;2023-02-13T11:07:24;147998.75;;;20.30;28.26
6853;BME280;3465;42.144;24.722;2023-02-13T11:09:53;148008.88;;;20.34;28.46
6853;BME280;3465;42.144;24.722;2023-02-13T11:12:29;147813.19;;;19.56;28.61
6853;BME280;3465;42.144;24.722;2023-02-13T11:15:03;147775.31;;;19.41;29.35
6853;BME280;3465;42.144;24.722;2023-02-13T11:17:38;147758.97;;;19.35;29.25
6853;BME280;3465;42.144;24.722;2023-02-13T11:20:07;147770.31;;;19.39;29.40
6853;BME280;3465;42.144;24.722;2023-02-13T11:22:47;147779.16;;;19.43;29.24
6853;BME280;3465;42.144;24.722;2023-02-13T11:25:26;147751.34;;;19.32;28.80
6853;BME280;3465;42.144;24.722;2023-02-13T11:28:12;147819.53;;;19.59;29.08
6853;BME280;3465;42.144;24.722;2023-02-13T11:30:42;147692.03;;;19.08;29.66
6853;BME280;3465;42.144;24.722;2023-02-13T11:35:43;147516.78;;;18.38;30.07
6853;BME280;3465;42.144;24.722;2023-02-13T11:38:10;147736.16;;;19.26;29.29
6853;BME280;3465;42.144;24.722;2023-02-13T11:40:36;147709.69;;;19.15;29.02
6853;BME280;3465;42.144;24.722;2023-02-13T11:43:05;147784.16;;;19.45;28.86
6853;BME280;3465;42.144;24.722;2023-02-13T11:45:32;147731.13;;;19.24;29.04
6853;BME280;3465;42.144;24.722;2023-02-13T11:47:58;147843.50;;;19.68;28.90
6853;BME280;3465;42.144;24.722;2023-02-13T11:53:05;147746.34;;;19.30;29.17
6853;BME280;3465;42.144;24.722;2023-02-13T11:55:33;147736.16;;;19.26;29.36
6853;BME280;3465;42.144;24.722;2023-02-13T11:58:43;147668.06;;;18.99;29.42
6853;BME280;3465;42.144;24.722;2023-02-13T12:00:44;147636.56;;;18.86;29.71
6853;BME280;3465;42.144;24.722;2023-02-13T12:03:27;147491.50;;;18.28;29.94
6853;BME280;3465;42.144;24.722;2023-02-13T12:08:31;147443.63;;;18.09;30.04
6853;BME280;3465;42.144;24.722;2023-02-13T12:10:58;147398.25;;;17.91;29.27
6853;BME280;3465;42.144;24.722;2023-02-13T12:13:37;147536.94;;;18.46;29.58
6853;BME280;3465;42.144;24.722;2023-02-13T12:16:13;147521.78;;;18.40;29.06
6853;BME280;3465;42.144;24.722;2023-02-13T12:18:45;147281.06;;;17.45;30.48
6853;BME280;3465;42.144;24.722;2023-02-13T12:26:41;147371.75;;;17.81;30.16
6853;BME280;3465;42.144;24.722;2023-02-13T12:32:18;147171.44;;;17.01;30.36
6853;BME280;3465;42.144;24.722;2023-02-13T12:34:50;147259.59;;;17.36;30.22
6853;BME280;3465;42.144;24.722;2023-02-13T12:37:29;147296.19;;;17.51;29.34
6853;BME280;3465;42.144;24.722;2023-02-13T12:45:41;147245.78;;;17.31;29.98
6853;BME280;3465;42.144;24.722;2023-02-13T12:48:26;147137.47;;;16.87;30.38
6853;BME280;3465;42.144;24.722;2023-02-13T13:01:40;146771.28;;;15.41;31.77
6853;BME280;3465;42.144;24.722;2023-02-13T13:07:02;146523.56;;;14.43;33.29
6853;BME280;3465;42.144;24.722;2023-02-13T13:15:10;146263.56;;;13.39;34.27
6853;BME280;3465;42.144;24.722;2023-02-13T13:25:42;146317.53;;;13.60;34.29
6853;BME280;3465;42.144;24.722;2023-02-13T13:28:22;146353.94;;;13.75;34.31
6853;BME280;3465;42.144;24.722;2023-02-13T13:30:48;146336.41;;;13.68;34.64
6853;BME280;3465;42.144;24.722;2023-02-13T13:33:20;146274.84;;;13.43;34.71
6853;BME280;3465;42.144;24.722;2023-02-13T13:41:21;146330.09;;;13.65;34.22
6853;BME280;3465;42.144;24.722;2023-02-13T13:46:47;146261.03;;;13.38;34.64
6853;BME280;3465;42.144;24.722;2023-02-13T13:52:24;145982.44;;;12.26;35.66
6853;BME280;3465;42.144;24.722;2023-02-13T13:54:50;145957.34;;;12.16;35.79
6853;BME280;3465;42.144;24.722;2023-02-13T14:05:27;146066.50;;;12.60;35.56
6853;BME280;3465;42.144;24.722;2023-02-13T14:07:56;146086.56;;;12.68;35.93
6853;BME280;3465;42.144;24.722;2023-02-13T14:21:00;146230.91;;;13.26;35.63
6853;BME280;3465;42.144;24.722;2023-02-13T14:23:31;146276.13;;;13.44;35.06
6853;BME280;3465;42.144;24.722;2023-02-13T14:28:54;146326.31;;;13.64;34.03
6853;BME280;3465;42.144;24.722;2023-02-13T14:36:46;146360.25;;;13.77;34.20
6853;BME280;3465;42.144;24.722;2023-02-13T14:39:27;146353.94;;;13.75;34.90
6853;BME280;3465;42.144;24.722;2023-02-13T14:47:18;146297.44;;;13.52;35.02
6853;BME280;3465;42.144;24.722;2023-02-13T14:49:46;146257.25;;;13.36;34.73
6853;BME280;3465;42.144;24.722;2023-02-13T14:52:23;146141.75;;;12.90;35.12
6853;BME280;3465;42.144;24.722;2023-02-13T14:54:59;146002.53;;;12.34;35.81
6853;BME280;3465;42.144;24.722;2023-02-13T14:57:37;145839.47;;;11.69;37.20
6853;BME280;3465;42.144;24.722;2023-02-13T15:02:46;145771.75;;;11.42;37.37
6853;BME280;3465;42.144;24.722;2023-02-13T15:05:15;145889.66;;;11.89;36.90
6853;BME280;3465;42.144;24.722;2023-02-13T15:07:48;145885.91;;;11.88;37.10
6853;BME280;3465;42.144;24.722;2023-02-13T15:10:45;145897.16;;;11.92;37.42
6853;BME280;3465;42.144;24.722;2023-02-13T15:13:14;145918.50;;;12.01;37.08
6853;BME280;3465;42.144;24.722;2023-02-13T15:15:42;145912.22;;;11.98;37.59
6853;BME280;3465;42.144;24.722;2023-02-13T15:18:21;145884.63;;;11.87;37.15
6853;BME280;3465;42.144;24.722;2023-02-13T15:20:48;145908.44;;;11.97;37.39
6853;BME280;3465;42.144;24.722;2023-02-13T15:23:22;145828.22;;;11.65;37.28
6853;BME280;3465;42.144;24.722;2023-02-13T15:25:55;145821.91;;;11.62;37.94
6853;BME280;3465;42.144;24.722;2023-02-13T15:28:22;145796.84;;;11.52;37.86
6853;BME280;3465;42.144;24.722;2023-02-13T15:30:59;145752.97;;;11.34;37.87
6853;BME280;3465;42.144;24.722;2023-02-13T15:33:28;145716.63;;;11.20;37.75
6853;BME280;3465;42.144;24.722;2023-02-13T15:36:04;145649.00;;;10.93;38.26
6853;BME280;3465;42.144;24.722;2023-02-13T15:38:34;145665.28;;;10.99;38.29
6853;BME280;3465;42.144;24.722;2023-02-13T15:41:10;145611.41;;;10.78;38.79
6853;BME280;3465;42.144;24.722;2023-02-13T15:43:41;145621.44;;;10.82;39.06
6853;BME280;3465;42.144;24.722;2023-02-13T15:46:19;145664.00;;;10.99;38.88
6853;BME280;3465;42.144;24.722;2023-02-13T15:48:46;145700.34;;;11.13;39.22
6853;BME280;3465;42.144;24.722;2023-02-13T15:51:38;145727.91;;;11.24;39.18
6853;BME280;3465;42.144;24.722;2023-02-13T15:54:06;145731.66;;;11.26;38.91
6853;BME280;3465;42.144;24.722;2023-02-13T15:56:32;145722.88;;;11.22;39.08
6853;BME280;3465;42.144;24.722;2023-02-13T15:58:59;145700.34;;;11.13;39.33